Thompson, Nebraska
Current Conditions -  °F | °C
As of 1:15 PM on Friday 24 Oct 2014 (Local Time) from KHJH Reporting Station
Clear Clear  
Wind Chill: 71°   Ceiling: Unl
Heat Index: 71°   Visibility: 10mi
Dew Point: 58°   Wind: 9mph
Humidity: 65%   Direction: 250°WSW
Pressure: 29.96"   Gusts: NA
Location:  40.1696°N, 97.2152°W
Report Text: KHJH 241815Z AUTO 25008KT 10SM CLR 21/15 A2996 RMK AO2 T02140145
Loading
Personal Weather Stations






























Interactive Weather Map
Tropical Storm Tracking
New forecast layout! Learn more

10-Day Weather Forecast

Advertisements
Track Severe Weather on mobile